createdAt,value
2018-06-11T00:04:36.138Z,92.20
2018-06-11T00:09:30.548Z,92.10
2018-06-11T00:14:24.976Z,92.10
2018-06-11T00:19:19.433Z,92.30
2018-06-11T00:24:13.838Z,92.40
2018-06-11T00:34:02.718Z,92.70
2018-06-11T00:38:57.164Z,92.60
2018-06-11T00:43:51.600Z,92.90
2018-06-11T00:48:46.084Z,92.60
2018-06-11T00:53:40.508Z,92.60
2018-06-11T00:58:35.023Z,93.10
2018-06-11T01:03:29.461Z,93.30
2018-06-11T01:13:18.060Z,93.40
2018-06-11T01:18:12.464Z,93.20
2018-06-11T01:23:06.967Z,93.60
2018-06-11T01:28:01.416Z,93.60
2018-06-11T01:32:55.900Z,93.90
2018-06-11T01:37:50.413Z,94.00
2018-06-11T01:42:44.875Z,94.30
2018-06-11T01:47:39.288Z,94.50
2018-06-11T01:52:33.693Z,94.60
2018-06-11T01:57:29.115Z,94.80
2018-06-11T02:02:23.538Z,94.80
2018-06-11T02:07:18.020Z,94.90
2018-06-11T02:12:12.479Z,95.00
2018-06-11T02:17:06.984Z,95.10
2018-06-11T02:22:01.508Z,95.10
2018-06-11T02:26:55.931Z,94.90
2018-06-11T02:31:50.389Z,95.00
2018-06-11T02:36:44.845Z,95.80
2018-06-11T02:41:39.337Z,95.90
2018-06-11T02:46:33.762Z,95.70
2018-06-11T02:51:28.194Z,95.90
2018-06-11T02:56:22.718Z,96.10
2018-06-11T03:01:17.153Z,96.50
2018-06-11T03:06:11.577Z,96.80
2018-06-11T03:11:06.069Z,96.70
2018-06-11T03:16:00.502Z,96.60
2018-06-11T03:20:54.920Z,96.70
2018-06-11T03:25:49.373Z,96.50
2018-06-11T03:30:43.761Z,96.30
2018-06-11T03:35:38.216Z,96.00
2018-06-11T03:40:32.645Z,96.30
2018-06-11T03:45:27.102Z,96.40
2018-06-11T03:50:21.528Z,96.10
2018-06-11T03:55:15.995Z,95.70
2018-06-11T04:00:12.204Z,94.90
2018-06-11T04:05:06.847Z,94.30
2018-06-11T04:10:01.329Z,93.50
2018-06-11T04:14:55.754Z,92.50
2018-06-11T04:19:50.229Z,91.30
2018-06-11T04:24:44.732Z,90.40
2018-06-11T04:29:39.120Z,89.90
2018-06-11T04:34:33.569Z,88.00
2018-06-11T04:39:28.012Z,87.50
2018-06-11T04:44:22.493Z,86.40
2018-06-11T04:49:16.960Z,84.60
2018-06-11T04:54:11.436Z,83.00
2018-06-11T04:59:05.885Z,79.30
2018-06-11T05:04:00.328Z,76.40
2018-06-11T05:08:54.765Z,73.70
2018-06-11T05:13:49.190Z,71.90
2018-06-11T05:18:43.611Z,70.30
2018-06-11T05:23:38.068Z,69.10
2018-06-11T05:28:32.484Z,66.70
2018-06-11T05:33:26.930Z,65.20
2018-06-11T05:38:21.443Z,65.00
2018-06-11T05:43:15.909Z,64.80
2018-06-11T05:48:10.291Z,62.70
2018-06-11T05:53:04.804Z,60.10
2018-06-11T05:57:59.337Z,58.60
2018-06-11T06:02:53.738Z,57.40
2018-06-11T06:07:48.139Z,59.20
2018-06-11T06:12:42.564Z,60.90
2018-06-11T06:17:49.448Z,63.10
2018-06-11T06:22:44.169Z,67.40
2018-06-11T06:27:38.607Z,68.60
2018-06-11T06:32:33.668Z,70.10
2018-06-11T06:37:28.643Z,70.70
2018-06-11T06:42:23.106Z,71.40
2018-06-11T06:47:18.885Z,72.10
2018-06-11T06:52:13.303Z,73.60
2018-06-11T06:57:07.743Z,74.50
2018-06-11T07:02:02.321Z,74.30
2018-06-11T07:06:57.092Z,73.30
2018-06-11T07:12:06.092Z,73.70
2018-06-11T07:17:00.906Z,74.40
2018-06-11T07:26:50.272Z,74.00
2018-06-11T07:31:48.092Z,72.40
2018-06-11T07:42:01.222Z,69.10
2018-06-11T07:46:56.293Z,67.20
2018-06-11T07:51:52.531Z,64.60
2018-06-11T07:56:49.604Z,65.80
2018-06-11T08:01:44.690Z,65.50
2018-06-11T08:06:39.124Z,65.90
2018-06-11T08:11:33.550Z,65.50
2018-06-11T08:21:22.124Z,65.50
2018-06-11T08:26:16.586Z,66.40
2018-06-11T08:31:18.959Z,66.40
2018-06-11T08:36:14.580Z,67.30
2018-06-11T08:41:09.896Z,66.90
2018-06-11T08:46:05.027Z,67.40
2018-06-11T08:50:59.651Z,66.60
2018-06-11T08:55:54.310Z,65.80
2018-06-11T09:00:48.755Z,65.70
2018-06-11T09:05:44.140Z,65.60
2018-06-11T09:10:43.511Z,64.10
2018-06-11T09:15:38.761Z,64.60
2018-06-11T09:20:33.842Z,64.10
2018-06-11T09:25:32.229Z,63.40
2018-06-11T09:30:27.052Z,62.90
2018-06-11T09:35:21.655Z,61.80
2018-06-11T09:40:16.134Z,61.60
2018-06-11T09:45:10.767Z,62.50
2018-06-11T09:50:05.676Z,63.80
2018-06-11T09:55:00.115Z,63.80
2018-06-11T09:59:57.219Z,62.60
2018-06-11T10:04:51.939Z,62.90
2018-06-11T10:09:46.386Z,62.30
2018-06-11T10:14:41.133Z,61.70
2018-06-11T10:19:35.586Z,62.80
2018-06-11T10:24:30.060Z,61.60
2018-06-11T10:29:24.473Z,62.40
2018-06-11T10:34:19.902Z,62.00
2018-06-11T10:39:14.628Z,62.40
2018-06-11T10:44:09.122Z,62.60
2018-06-11T10:49:06.448Z,61.80
2018-06-11T10:54:01.542Z,63.20
2018-06-11T10:58:56.004Z,63.70
2018-06-11T11:03:50.752Z,63.50
2018-06-11T11:08:47.712Z,63.50
2018-06-11T11:13:42.285Z,64.40
2018-06-11T11:18:57.652Z,64.90
2018-06-11T11:23:52.449Z,65.30
2018-06-11T11:28:46.879Z,66.10
2018-06-11T11:33:41.517Z,68.20
2018-06-11T11:38:42.829Z,69.30
2018-06-11T11:43:37.351Z,68.80
2018-06-11T11:48:31.873Z,69.10
2018-06-11T11:53:26.821Z,68.60
2018-06-11T11:58:21.488Z,70.90
2018-06-11T12:03:15.930Z,72.80
2018-06-11T12:08:10.397Z,75.10
2018-06-11T12:13:05.097Z,78.30
2018-06-11T12:17:59.577Z,80.40
2018-06-11T12:27:48.497Z,81.90
2018-06-11T12:37:38.483Z,82.00
2018-06-11T12:42:34.881Z,79.50
2018-06-11T12:47:29.425Z,81.60
2018-06-11T12:52:23.989Z,80.20
2018-06-11T13:02:16.390Z,79.10
2018-06-11T13:07:12.715Z,77.90
2018-06-11T13:12:07.322Z,75.70
2018-06-11T13:21:59.133Z,75.90
2018-06-11T13:26:53.935Z,75.50
2018-06-11T13:31:48.633Z,75.50
2018-06-11T13:36:43.704Z,75.60
2018-06-11T13:41:38.442Z,76.10
2018-06-11T13:46:33.423Z,77.70
2018-06-11T13:51:27.891Z,80.00
2018-06-11T13:56:22.420Z,81.10
2018-06-11T14:01:17.262Z,82.50
2018-06-11T14:06:11.743Z,82.90
2018-06-11T14:11:06.338Z,83.20
2018-06-11T14:16:03.336Z,82.50
2018-06-11T14:20:57.998Z,83.00
2018-06-11T14:25:52.463Z,84.10
2018-06-11T14:30:47.044Z,86.60
2018-06-11T14:35:41.749Z,90.60
2018-06-11T14:40:36.570Z,94.00
2018-06-11T14:45:31.591Z,94.30
2018-06-11T14:50:26.165Z,95.20
2018-06-11T14:55:21.199Z,95.60
2018-06-11T15:00:19.629Z,95.10
2018-06-11T15:05:14.697Z,94.80
2018-06-11T15:10:09.497Z,93.30
2018-06-11T15:15:04.317Z,92.00
2018-06-11T15:19:59.225Z,91.60
2018-06-11T15:24:54.150Z,91.20
2018-06-11T15:29:50.165Z,91.30
2018-06-11T15:34:46.805Z,91.00
2018-06-11T15:39:41.668Z,90.00
2018-06-11T15:44:36.264Z,90.40
2018-06-11T15:49:30.974Z,88.60
2018-06-11T15:54:25.657Z,89.30
2018-06-11T15:59:20.624Z,88.00
2018-06-11T16:04:15.223Z,88.70
2018-06-11T16:09:09.947Z,86.00
2018-06-11T16:14:04.590Z,87.90
2018-06-11T16:18:59.114Z,87.80
2018-06-11T16:23:53.958Z,87.70
2018-06-11T16:28:48.687Z,87.20
2018-06-11T16:33:43.445Z,88.80
2018-06-11T16:38:38.712Z,89.20
2018-06-11T16:45:02.651Z,88.80
2018-06-11T16:49:57.363Z,87.40
2018-06-11T16:54:51.988Z,84.40
2018-06-11T16:59:47.998Z,82.40
2018-06-11T17:04:43.460Z,81.10
2018-06-11T17:09:38.089Z,79.60
2018-06-11T17:14:32.794Z,80.60
2018-06-11T17:19:29.110Z,80.00
2018-06-11T17:24:25.657Z,77.70
2018-06-11T17:29:20.277Z,78.90
2018-06-11T17:34:14.879Z,79.80
2018-06-11T17:39:09.463Z,78.60
2018-06-11T17:44:03.988Z,79.90
2018-06-11T17:48:58.535Z,80.10
2018-06-11T17:53:53.069Z,81.40
2018-06-11T17:58:48.667Z,81.70
2018-06-11T18:03:43.156Z,82.20
2018-06-11T18:08:37.665Z,81.90
2018-06-11T18:13:32.290Z,83.30
2018-06-11T18:18:26.825Z,84.20
2018-06-11T18:23:21.350Z,85.00
2018-06-11T18:28:15.853Z,84.90
2018-06-11T18:33:10.505Z,84.90
2018-06-11T18:38:05.021Z,84.60
2018-06-11T18:42:59.650Z,83.60
2018-06-11T18:47:54.134Z,83.20
2018-06-11T18:52:49.537Z,83.60
2018-06-11T18:57:44.058Z,82.90
2018-06-11T19:02:39.516Z,82.10
2018-06-11T19:12:28.190Z,82.10
2018-06-11T19:17:22.884Z,84.50
2018-06-11T19:22:17.364Z,85.60
2018-06-11T19:27:11.904Z,87.10
2018-06-11T19:32:06.555Z,88.40
2018-06-11T19:37:01.091Z,90.00
2018-06-11T19:41:55.577Z,91.00
2018-06-11T19:46:50.103Z,91.30
2018-06-11T19:51:44.735Z,91.90
2018-06-11T19:56:39.400Z,91.70
2018-06-11T20:01:33.862Z,92.00
2018-06-11T20:06:28.322Z,92.00
2018-06-11T20:11:22.833Z,92.10
2018-06-11T20:16:18.436Z,92.20
2018-06-11T20:21:12.938Z,92.60
2018-06-11T20:26:07.486Z,92.60
2018-06-11T20:31:02.010Z,92.80
2018-06-11T20:35:56.541Z,93.00
2018-06-11T20:40:51.003Z,93.20
2018-06-11T20:47:14.956Z,93.20
2018-06-11T20:52:09.567Z,93.20
2018-06-11T20:57:04.185Z,93.30
2018-06-11T21:06:52.797Z,93.50
2018-06-11T21:11:47.265Z,93.60
2018-06-11T21:16:41.704Z,93.60
2018-06-11T21:26:30.465Z,93.70
2018-06-11T21:31:25.012Z,93.90
2018-06-11T21:36:19.476Z,93.80
2018-06-11T21:41:14.097Z,93.80
2018-06-11T21:46:08.578Z,93.90
2018-06-11T21:51:03.544Z,94.10
2018-06-11T21:55:58.040Z,94.10
2018-06-11T22:00:52.501Z,94.30
2018-06-11T22:05:47.005Z,94.00
2018-06-11T22:10:41.430Z,94.00
2018-06-11T22:15:35.929Z,94.20
2018-06-11T22:20:30.443Z,94.60
2018-06-11T22:25:24.908Z,94.70
2018-06-11T22:30:19.440Z,94.70
2018-06-11T22:35:13.932Z,95.10
2018-06-11T22:40:08.388Z,95.40
2018-06-11T22:45:03.000Z,95.40
2018-06-11T22:49:57.568Z,95.80
2018-06-11T22:54:52.048Z,96.20
2018-06-11T22:59:46.518Z,96.10
2018-06-11T23:06:09.995Z,96.20
2018-06-11T23:11:04.604Z,96.30
2018-06-11T23:15:59.382Z,96.70
2018-06-11T23:20:53.901Z,96.80
2018-06-11T23:25:48.328Z,96.90
2018-06-11T23:30:42.753Z,97.10
2018-06-11T23:35:37.202Z,96.90
2018-06-11T23:40:31.610Z,97.10
2018-06-11T23:45:26.987Z,97.30
2018-06-11T23:55:15.785Z,97.50
